sensor_id;sensor_type;location;lat;lon;timestamp;temperature;humidity
53045;DHT22;38930;52.766;6.884;2023-09-12T00:01:23;20.40;99.90
53045;DHT22;38930;52.766;6.884;2023-09-12T00:03:49;20.40;99.90
53045;DHT22;38930;52.766;6.884;2023-09-12T00:06:15;20.40;99.90
53045;DHT22;38930;52.766;6.884;2023-09-12T00:08:41;20.30;99.90
53045;DHT22;38930;52.766;6.884;2023-09-12T00:11:09;20.30;99.90
53045;DHT22;38930;52.766;6.884;2023-09-12T00:13:38;20.10;99.90
53045;DHT22;38930;52.766;6.884;2023-09-12T00:16:05;20.20;99.90
53045;DHT22;38930;52.766;6.884;2023-09-12T00:18:32;20.20;99.90
53045;DHT22;38930;52.766;6.884;2023-09-12T00:20:59;20.20;99.90
53045;DHT22;38930;52.766;6.884;2023-09-12T00:23:26;20.20;99.90
53045;DHT22;38930;52.766;6.884;2023-09-12T00:25:52;20.20;99.90
53045;DHT22;38930;52.766;6.884;2023-09-12T00:28:18;20.20;99.90
53045;DHT22;38930;52.766;6.884;2023-09-12T00:30:44;20.20;99.90
53045;DHT22;38930;52.766;6.884;2023-09-12T00:33:09;20.20;99.90
53045;DHT22;38930;52.766;6.884;2023-09-12T00:35:35;20.20;99.90
53045;DHT22;38930;52.766;6.884;2023-09-12T00:38:01;20.10;99.90
53045;DHT22;38930;52.766;6.884;2023-09-12T00:40:26;20.10;99.90
53045;DHT22;38930;52.766;6.884;2023-09-12T00:42:52;20.10;99.90
53045;DHT22;38930;52.766;6.884;2023-09-12T00:45:18;20.10;99.90
53045;DHT22;38930;52.766;6.884;2023-09-12T00:47:44;20.00;99.90
53045;DHT22;38930;52.766;6.884;2023-09-12T00:50:11;20.00;99.90
53045;DHT22;38930;52.766;6.884;2023-09-12T00:52:36;20.00;99.90
53045;DHT22;38930;52.766;6.884;2023-09-12T00:55:04;19.90;99.90
53045;DHT22;38930;52.766;6.884;2023-09-12T00:57:31;19.90;99.90
53045;DHT22;38930;52.766;6.884;2023-09-12T00:59:57;20.00;99.90
53045;DHT22;38930;52.766;6.884;2023-09-12T01:02:24;19.90;99.90
53045;DHT22;38930;52.766;6.884;2023-09-12T01:04:50;19.90;99.90
53045;DHT22;38930;52.766;6.884;2023-09-12T01:07:16;19.90;99.90
53045;DHT22;38930;52.766;6.884;2023-09-12T01:09:42;20.00;99.90
53045;DHT22;38930;52.766;6.884;2023-09-12T01:12:08;19.90;99.90
53045;DHT22;38930;52.766;6.884;2023-09-12T01:14:34;19.90;99.90
53045;DHT22;38930;52.766;6.884;2023-09-12T01:17:00;19.90;99.90
53045;DHT22;38930;52.766;6.884;2023-09-12T01:19:27;19.90;99.90
53045;DHT22;38930;52.766;6.884;2023-09-12T01:25:11;20.00;99.90
53045;DHT22;38930;52.766;6.884;2023-09-12T01:27:45;20.00;99.90
53045;DHT22;38930;52.766;6.884;2023-09-12T01:30:12;20.00;99.90
53045;DHT22;38930;52.766;6.884;2023-09-12T01:32:42;19.90;99.90
53045;DHT22;38930;52.766;6.884;2023-09-12T01:35:08;19.90;99.90
53045;DHT22;38930;52.766;6.884;2023-09-12T01:37:34;19.90;99.90
53045;DHT22;38930;52.766;6.884;2023-09-12T01:40:00;19.90;99.90
53045;DHT22;38930;52.766;6.884;2023-09-12T01:42:44;19.90;99.90
53045;DHT22;38930;52.766;6.884;2023-09-12T01:45:12;19.80;99.90
53045;DHT22;38930;52.766;6.884;2023-09-12T01:47:40;19.80;99.90
53045;DHT22;38930;52.766;6.884;2023-09-12T01:50:08;19.80;99.90
53045;DHT22;38930;52.766;6.884;2023-09-12T01:52:35;19.70;99.90
53045;DHT22;38930;52.766;6.884;2023-09-12T01:55:02;19.70;99.90
53045;DHT22;38930;52.766;6.884;2023-09-12T01:57:28;19.60;99.90
53045;DHT22;38930;52.766;6.884;2023-09-12T01:59:54;19.60;99.90
53045;DHT22;38930;52.766;6.884;2023-09-12T02:02:19;19.60;99.90
53045;DHT22;38930;52.766;6.884;2023-09-12T02:05:07;19.60;99.90
53045;DHT22;38930;52.766;6.884;2023-09-12T02:07:38;19.60;99.90
53045;DHT22;38930;52.766;6.884;2023-09-12T02:10:04;19.50;99.90
53045;DHT22;38930;52.766;6.884;2023-09-12T02:12:31;19.50;99.90
53045;DHT22;38930;52.766;6.884;2023-09-12T02:14:56;19.50;99.90
53045;DHT22;38930;52.766;6.884;2023-09-12T02:17:22;19.40;99.90
53045;DHT22;38930;52.766;6.884;2023-09-12T02:19:48;19.40;99.90
53045;DHT22;38930;52.766;6.884;2023-09-12T02:22:14;19.40;99.90
53045;DHT22;38930;52.766;6.884;2023-09-12T02:24:39;19.40;99.90
53045;DHT22;38930;52.766;6.884;2023-09-12T02:27:05;19.40;99.90
53045;DHT22;38930;52.766;6.884;2023-09-12T02:29:31;19.40;99.90
53045;DHT22;38930;52.766;6.884;2023-09-12T02:31:58;19.40;99.90
53045;DHT22;38930;52.766;6.884;2023-09-12T02:34:24;19.30;99.90
53045;DHT22;38930;52.766;6.884;2023-09-12T02:36:49;19.30;99.90
53045;DHT22;38930;52.766;6.884;2023-09-12T02:39:15;19.30;99.90
53045;DHT22;38930;52.766;6.884;2023-09-12T02:41:41;19.30;99.90
53045;DHT22;38930;52.766;6.884;2023-09-12T02:44:07;19.30;99.90
53045;DHT22;38930;52.766;6.884;2023-09-12T02:46:33;19.30;99.90
53045;DHT22;38930;52.766;6.884;2023-09-12T02:48:58;19.30;99.90
53045;DHT22;38930;52.766;6.884;2023-09-12T02:51:25;19.20;99.90
53045;DHT22;38930;52.766;6.884;2023-09-12T02:53:51;19.20;99.90
53045;DHT22;38930;52.766;6.884;2023-09-12T02:56:17;19.20;99.90
53045;DHT22;38930;52.766;6.884;2023-09-12T02:58:46;19.20;99.90
53045;DHT22;38930;52.766;6.884;2023-09-12T03:01:15;19.20;99.90
53045;DHT22;38930;52.766;6.884;2023-09-12T03:03:41;19.10;99.90
53045;DHT22;38930;52.766;6.884;2023-09-12T03:06:07;19.10;99.90
53045;DHT22;38930;52.766;6.884;2023-09-12T03:08:33;19.10;99.90
53045;DHT22;38930;52.766;6.884;2023-09-12T03:10:58;19.10;99.90
53045;DHT22;38930;52.766;6.884;2023-09-12T03:13:25;19.10;99.90
53045;DHT22;38930;52.766;6.884;2023-09-12T03:15:51;19.10;99.90
53045;DHT22;38930;52.766;6.884;2023-09-12T03:18:17;19.10;99.90
53045;DHT22;38930;52.766;6.884;2023-09-12T03:20:42;19.10;99.90
53045;DHT22;38930;52.766;6.884;2023-09-12T03:23:08;19.10;99.90
53045;DHT22;38930;52.766;6.884;2023-09-12T03:25:38;19.10;99.90
53045;DHT22;38930;52.766;6.884;2023-09-12T03:28:04;19.10;99.90
53045;DHT22;38930;52.766;6.884;2023-09-12T03:30:32;19.10;99.90
53045;DHT22;38930;52.766;6.884;2023-09-12T03:32:58;19.10;99.90
53045;DHT22;38930;52.766;6.884;2023-09-12T03:35:24;19.10;99.90
53045;DHT22;38930;52.766;6.884;2023-09-12T03:37:49;19.10;99.90
53045;DHT22;38930;52.766;6.884;2023-09-12T03:40:15;19.10;99.90
53045;DHT22;38930;52.766;6.884;2023-09-12T03:42:40;19.10;99.90
53045;DHT22;38930;52.766;6.884;2023-09-12T03:45:06;19.10;99.90
53045;DHT22;38930;52.766;6.884;2023-09-12T03:47:32;19.10;99.90
53045;DHT22;38930;52.766;6.884;2023-09-12T03:49:58;19.10;99.90
53045;DHT22;38930;52.766;6.884;2023-09-12T03:52:24;19.00;99.90
53045;DHT22;38930;52.766;6.884;2023-09-12T03:54:49;19.00;99.90
53045;DHT22;38930;52.766;6.884;2023-09-12T03:57:15;19.00;99.90
53045;DHT22;38930;52.766;6.884;2023-09-12T03:59:41;19.00;99.90
53045;DHT22;38930;52.766;6.884;2023-09-12T04:02:06;19.00;99.90
53045;DHT22;38930;52.766;6.884;2023-09-12T04:04:32;19.00;99.90
53045;DHT22;38930;52.766;6.884;2023-09-12T04:06:58;18.90;99.90
53045;DHT22;38930;52.766;6.884;2023-09-12T04:09:23;18.90;99.90
53045;DHT22;38930;52.766;6.884;2023-09-12T04:11:49;18.90;99.90
53045;DHT22;38930;52.766;6.884;2023-09-12T04:14:15;18.90;99.90
53045;DHT22;38930;52.766;6.884;2023-09-12T04:16:40;18.90;99.90
53045;DHT22;38930;52.766;6.884;2023-09-12T04:19:06;18.90;99.90
53045;DHT22;38930;52.766;6.884;2023-09-12T04:21:31;18.90;99.90
53045;DHT22;38930;52.766;6.884;2023-09-12T04:23:57;18.80;99.90
53045;DHT22;38930;52.766;6.884;2023-09-12T04:26:23;18.80;99.90
53045;DHT22;38930;52.766;6.884;2023-09-12T04:28:48;18.90;99.90
53045;DHT22;38930;52.766;6.884;2023-09-12T04:31:14;18.90;99.90
53045;DHT22;38930;52.766;6.884;2023-09-12T04:33:40;18.90;99.90
53045;DHT22;38930;52.766;6.884;2023-09-12T04:36:06;18.90;99.90
53045;DHT22;38930;52.766;6.884;2023-09-12T04:38:31;18.80;99.90
53045;DHT22;38930;52.766;6.884;2023-09-12T04:41:01;18.80;99.90
53045;DHT22;38930;52.766;6.884;2023-09-12T04:43:30;18.80;99.90
53045;DHT22;38930;52.766;6.884;2023-09-12T04:45:56;18.80;99.90
53045;DHT22;38930;52.766;6.884;2023-09-12T04:48:22;18.80;99.90
53045;DHT22;38930;52.766;6.884;2023-09-12T04:50:48;18.80;99.90
53045;DHT22;38930;52.766;6.884;2023-09-12T04:53:14;18.70;99.90
53045;DHT22;38930;52.766;6.884;2023-09-12T04:55:40;18.70;99.90
53045;DHT22;38930;52.766;6.884;2023-09-12T04:58:06;18.70;99.90
53045;DHT22;38930;52.766;6.884;2023-09-12T05:00:32;18.70;99.90
53045;DHT22;38930;52.766;6.884;2023-09-12T05:02:58;18.60;99.90
53045;DHT22;38930;52.766;6.884;2023-09-12T05:05:24;18.70;99.90
53045;DHT22;38930;52.766;6.884;2023-09-12T05:07:50;18.70;99.90
53045;DHT22;38930;52.766;6.884;2023-09-12T05:10:17;18.70;99.90
53045;DHT22;38930;52.766;6.884;2023-09-12T05:12:43;18.70;99.90
53045;DHT22;38930;52.766;6.884;2023-09-12T05:15:09;18.70;99.90
53045;DHT22;38930;52.766;6.884;2023-09-12T05:17:34;18.70;99.90
53045;DHT22;38930;52.766;6.884;2023-09-12T05:20:00;18.80;99.90
53045;DHT22;38930;52.766;6.884;2023-09-12T05:22:26;18.70;99.90
53045;DHT22;38930;52.766;6.884;2023-09-12T05:24:52;18.70;99.90
53045;DHT22;38930;52.766;6.884;2023-09-12T05:27:18;18.70;99.90
53045;DHT22;38930;52.766;6.884;2023-09-12T05:29:43;18.70;99.90
53045;DHT22;38930;52.766;6.884;2023-09-12T05:32:09;18.70;99.90
53045;DHT22;38930;52.766;6.884;2023-09-12T05:34:35;18.70;99.90
53045;DHT22;38930;52.766;6.884;2023-09-12T05:37:00;18.70;99.90
53045;DHT22;38930;52.766;6.884;2023-09-12T05:39:26;18.70;99.90
53045;DHT22;38930;52.766;6.884;2023-09-12T05:41:52;18.70;99.90
53045;DHT22;38930;52.766;6.884;2023-09-12T05:44:17;18.60;99.90
53045;DHT22;38930;52.766;6.884;2023-09-12T05:46:47;18.60;99.90
53045;DHT22;38930;52.766;6.884;2023-09-12T05:49:13;18.60;99.90
53045;DHT22;38930;52.766;6.884;2023-09-12T05:51:40;18.50;99.90
53045;DHT22;38930;52.766;6.884;2023-09-12T05:54:06;18.50;99.90
53045;DHT22;38930;52.766;6.884;2023-09-12T05:56:32;18.50;99.90
53045;DHT22;38930;52.766;6.884;2023-09-12T05:58:57;18.50;99.90
53045;DHT22;38930;52.766;6.884;2023-09-12T06:01:23;18.50;99.90
53045;DHT22;38930;52.766;6.884;2023-09-12T06:03:49;18.60;99.90
53045;DHT22;38930;52.766;6.884;2023-09-12T06:06:14;18.60;99.90
53045;DHT22;38930;52.766;6.884;2023-09-12T06:08:40;18.60;99.90
53045;DHT22;38930;52.766;6.884;2023-09-12T06:11:06;18.60;99.90
53045;DHT22;38930;52.766;6.884;2023-09-12T06:13:31;18.70;99.90
53045;DHT22;38930;52.766;6.884;2023-09-12T06:15:59;18.70;99.90
53045;DHT22;38930;52.766;6.884;2023-09-12T06:18:24;18.80;99.90
53045;DHT22;38930;52.766;6.884;2023-09-12T06:20:52;18.70;99.90
53045;DHT22;38930;52.766;6.884;2023-09-12T06:23:17;18.80;99.90
53045;DHT22;38930;52.766;6.884;2023-09-12T06:25:43;18.80;99.90
53045;DHT22;38930;52.766;6.884;2023-09-12T06:28:09;18.90;99.90
53045;DHT22;38930;52.766;6.884;2023-09-12T06:30:36;18.90;99.90
53045;DHT22;38930;52.766;6.884;2023-09-12T06:33:01;19.00;99.90
53045;DHT22;38930;52.766;6.884;2023-09-12T06:35:27;19.00;99.90
53045;DHT22;38930;52.766;6.884;2023-09-12T06:37:53;19.00;99.90
53045;DHT22;38930;52.766;6.884;2023-09-12T06:40:21;19.00;99.90
53045;DHT22;38930;52.766;6.884;2023-09-12T06:42:47;19.00;99.90
53045;DHT22;38930;52.766;6.884;2023-09-12T06:45:12;19.00;99.90
53045;DHT22;38930;52.766;6.884;2023-09-12T06:47:38;19.00;99.90
53045;DHT22;38930;52.766;6.884;2023-09-12T06:50:04;19.00;99.90
53045;DHT22;38930;52.766;6.884;2023-09-12T06:52:29;19.00;99.90
53045;DHT22;38930;52.766;6.884;2023-09-12T06:54:55;19.10;99.90
53045;DHT22;38930;52.766;6.884;2023-09-12T06:57:20;19.10;99.90
53045;DHT22;38930;52.766;6.884;2023-09-12T06:59:46;19.10;99.90
53045;DHT22;38930;52.766;6.884;2023-09-12T07:02:14;19.10;99.90
53045;DHT22;38930;52.766;6.884;2023-09-12T07:04:40;19.20;99.90
53045;DHT22;38930;52.766;6.884;2023-09-12T07:07:05;19.20;99.90
53045;DHT22;38930;52.766;6.884;2023-09-12T07:09:31;19.20;99.90
53045;DHT22;38930;52.766;6.884;2023-09-12T07:11:57;19.30;99.90
53045;DHT22;38930;52.766;6.884;2023-09-12T07:14:22;19.20;99.90
53045;DHT22;38930;52.766;6.884;2023-09-12T07:16:50;19.20;99.90
53045;DHT22;38930;52.766;6.884;2023-09-12T07:19:16;19.20;99.90
53045;DHT22;38930;52.766;6.884;2023-09-12T07:21:41;19.20;99.90
53045;DHT22;38930;52.766;6.884;2023-09-12T07:24:07;19.20;99.90
53045;DHT22;38930;52.766;6.884;2023-09-12T07:26:33;19.20;99.90
53045;DHT22;38930;52.766;6.884;2023-09-12T07:28:58;19.20;99.90
53045;DHT22;38930;52.766;6.884;2023-09-12T07:31:27;19.20;99.90
53045;DHT22;38930;52.766;6.884;2023-09-12T07:33:53;19.20;99.90
53045;DHT22;38930;52.766;6.884;2023-09-12T07:36:19;19.20;99.90
53045;DHT22;38930;52.766;6.884;2023-09-12T07:38:44;19.20;99.90
53045;DHT22;38930;52.766;6.884;2023-09-12T07:41:11;19.20;99.90
53045;DHT22;38930;52.766;6.884;2023-09-12T07:43:36;19.30;99.90
53045;DHT22;38930;52.766;6.884;2023-09-12T07:46:02;19.30;99.90
53045;DHT22;38930;52.766;6.884;2023-09-12T07:48:27;19.30;99.90
53045;DHT22;38930;52.766;6.884;2023-09-12T07:50:53;19.30;99.90
53045;DHT22;38930;52.766;6.884;2023-09-12T07:53:19;19.30;99.90
53045;DHT22;38930;52.766;6.884;2023-09-12T07:55:45;19.30;99.90
53045;DHT22;38930;52.766;6.884;2023-09-12T07:58:13;19.30;99.90
53045;DHT22;38930;52.766;6.884;2023-09-12T08:00:38;19.30;99.90
53045;DHT22;38930;52.766;6.884;2023-09-12T08:03:04;19.40;99.90
53045;DHT22;38930;52.766;6.884;2023-09-12T08:05:30;19.40;99.90
53045;DHT22;38930;52.766;6.884;2023-09-12T08:07:55;19.40;99.90
53045;DHT22;38930;52.766;6.884;2023-09-12T08:10:21;19.40;99.90
53045;DHT22;38930;52.766;6.884;2023-09-12T08:12:47;19.40;99.90
53045;DHT22;38930;52.766;6.884;2023-09-12T08:15:12;19.40;99.90
53045;DHT22;38930;52.766;6.884;2023-09-12T08:17:38;19.50;99.90
53045;DHT22;38930;52.766;6.884;2023-09-12T08:20:06;19.50;99.90
53045;DHT22;38930;52.766;6.884;2023-09-12T08:22:32;19.60;99.90
53045;DHT22;38930;52.766;6.884;2023-09-12T08:24:57;19.70;99.90
53045;DHT22;38930;52.766;6.884;2023-09-12T08:27:23;19.90;99.90
53045;DHT22;38930;52.766;6.884;2023-09-12T08:29:49;20.00;99.90
53045;DHT22;38930;52.766;6.884;2023-09-12T08:32:14;20.10;99.90
53045;DHT22;38930;52.766;6.884;2023-09-12T08:34:40;20.10;99.90
53045;DHT22;38930;52.766;6.884;2023-09-12T08:37:05;20.10;99.90
53045;DHT22;38930;52.766;6.884;2023-09-12T08:39:43;20.20;99.90
53045;DHT22;38930;52.766;6.884;2023-09-12T08:42:14;20.20;99.90
53045;DHT22;38930;52.766;6.884;2023-09-12T08:44:41;20.20;99.90
53045;DHT22;38930;52.766;6.884;2023-09-12T08:47:08;20.20;99.90
53045;DHT22;38930;52.766;6.884;2023-09-12T08:49:36;20.20;99.90
53045;DHT22;38930;52.766;6.884;2023-09-12T08:52:03;20.30;99.90
53045;DHT22;38930;52.766;6.884;2023-09-12T08:54:29;20.30;99.90
53045;DHT22;38930;52.766;6.884;2023-09-12T08:56:55;20.30;99.90
53045;DHT22;38930;52.766;6.884;2023-09-12T08:59:21;20.40;99.90
53045;DHT22;38930;52.766;6.884;2023-09-12T09:01:47;20.50;99.90
53045;DHT22;38930;52.766;6.884;2023-09-12T09:04:16;20.50;99.90
53045;DHT22;38930;52.766;6.884;2023-09-12T09:06:42;20.60;99.90
53045;DHT22;38930;52.766;6.884;2023-09-12T09:09:08;20.70;99.90
53045;DHT22;38930;52.766;6.884;2023-09-12T09:11:34;20.80;99.90
53045;DHT22;38930;52.766;6.884;2023-09-12T09:14:03;20.80;99.90
53045;DHT22;38930;52.766;6.884;2023-09-12T09:16:29;20.90;99.90
53045;DHT22;38930;52.766;6.884;2023-09-12T09:18:56;21.00;99.90
53045;DHT22;38930;52.766;6.884;2023-09-12T09:21:25;21.00;99.90
53045;DHT22;38930;52.766;6.884;2023-09-12T09:23:55;21.00;99.90
53045;DHT22;38930;52.766;6.884;2023-09-12T09:26:22;21.00;99.90
53045;DHT22;38930;52.766;6.884;2023-09-12T09:29:05;21.10;99.90
53045;DHT22;38930;52.766;6.884;2023-09-12T09:31:31;21.20;99.90
53045;DHT22;38930;52.766;6.884;2023-09-12T09:33:58;21.20;99.90
53045;DHT22;38930;52.766;6.884;2023-09-12T09:36:25;21.20;99.90
53045;DHT22;38930;52.766;6.884;2023-09-12T09:38:51;21.30;99.90
53045;DHT22;38930;52.766;6.884;2023-09-12T09:41:20;21.30;99.90
53045;DHT22;38930;52.766;6.884;2023-09-12T09:43:49;21.40;99.90
53045;DHT22;38930;52.766;6.884;2023-09-12T09:46:16;21.40;99.90
53045;DHT22;38930;52.766;6.884;2023-09-12T09:48:48;21.50;99.90
53045;DHT22;38930;52.766;6.884;2023-09-12T09:51:14;21.50;99.90
53045;DHT22;38930;52.766;6.884;2023-09-12T09:53:39;21.60;99.90
53045;DHT22;38930;52.766;6.884;2023-09-12T09:56:15;21.60;99.90
53045;DHT22;38930;52.766;6.884;2023-09-12T09:58:48;21.70;99.90
53045;DHT22;38930;52.766;6.884;2023-09-12T10:01:29;21.80;99.90
53045;DHT22;38930;52.766;6.884;2023-09-12T10:04:00;21.90;99.90
53045;DHT22;38930;52.766;6.884;2023-09-12T10:06:27;22.00;99.90
53045;DHT22;38930;52.766;6.884;2023-09-12T10:08:54;22.00;99.90
53045;DHT22;38930;52.766;6.884;2023-09-12T10:11:24;22.20;99.90
53045;DHT22;38930;52.766;6.884;2023-09-12T10:13:57;22.30;99.90
53045;DHT22;38930;52.766;6.884;2023-09-12T10:16:29;22.50;99.90
53045;DHT22;38930;52.766;6.884;2023-09-12T10:19:10;22.60;99.90
53045;DHT22;38930;52.766;6.884;2023-09-12T10:24:10;22.70;99.90
53045;DHT22;38930;52.766;6.884;2023-09-12T10:26:36;22.70;99.90
53045;DHT22;38930;52.766;6.884;2023-09-12T10:29:08;22.70;99.90
53045;DHT22;38930;52.766;6.884;2023-09-12T10:31:35;22.70;99.90
53045;DHT22;38930;52.766;6.884;2023-09-12T10:34:02;22.80;99.90
53045;DHT22;38930;52.766;6.884;2023-09-12T10:36:29;22.90;99.90
53045;DHT22;38930;52.766;6.884;2023-09-12T10:38:55;23.00;99.90
53045;DHT22;38930;52.766;6.884;2023-09-12T10:41:24;23.10;99.90
53045;DHT22;38930;52.766;6.884;2023-09-12T10:43:51;23.00;99.90
53045;DHT22;38930;52.766;6.884;2023-09-12T10:46:18;23.10;99.90
53045;DHT22;38930;52.766;6.884;2023-09-12T10:48:44;23.10;99.90
53045;DHT22;38930;52.766;6.884;2023-09-12T10:51:11;23.00;99.90
53045;DHT22;38930;52.766;6.884;2023-09-12T10:53:38;23.00;99.90
53045;DHT22;38930;52.766;6.884;2023-09-12T11:01:30;23.20;99.90
53045;DHT22;38930;52.766;6.884;2023-09-12T11:03:57;23.20;99.90
53045;DHT22;38930;52.766;6.884;2023-09-12T11:06:28;23.30;99.90
53045;DHT22;38930;52.766;6.884;2023-09-12T11:09:25;23.40;99.90
53045;DHT22;38930;52.766;6.884;2023-09-12T11:12:04;23.60;99.90
53045;DHT22;38930;52.766;6.884;2023-09-12T11:14:30;23.70;99.90
53045;DHT22;38930;52.766;6.884;2023-09-12T11:17:21;23.80;99.90
53045;DHT22;38930;52.766;6.884;2023-09-12T11:19:48;23.90;99.90
53045;DHT22;38930;52.766;6.884;2023-09-12T11:22:29;23.80;99.90
53045;DHT22;38930;52.766;6.884;2023-09-12T11:24:56;23.90;99.90
53045;DHT22;38930;52.766;6.884;2023-09-12T11:27:24;24.00;99.90
53045;DHT22;38930;52.766;6.884;2023-09-12T11:29:50;24.10;99.90
53045;DHT22;38930;52.766;6.884;2023-09-12T11:32:32;24.20;99.90
53045;DHT22;38930;52.766;6.884;2023-09-12T11:34:59;24.30;99.90
53045;DHT22;38930;52.766;6.884;2023-09-12T11:37:29;24.50;99.90
53045;DHT22;38930;52.766;6.884;2023-09-12T11:39:55;24.70;99.90
53045;DHT22;38930;52.766;6.884;2023-09-12T11:42:23;24.70;99.90
53045;DHT22;38930;52.766;6.884;2023-09-12T11:44:51;24.60;99.90
53045;DHT22;38930;52.766;6.884;2023-09-12T11:47:17;24.60;99.90
53045;DHT22;38930;52.766;6.884;2023-09-12T11:49:43;24.50;99.90
53045;DHT22;38930;52.766;6.884;2023-09-12T11:52:13;24.40;99.90
53045;DHT22;38930;52.766;6.884;2023-09-12T11:54:43;24.30;99.90
53045;DHT22;38930;52.766;6.884;2023-09-12T11:57:10;24.30;99.90
53045;DHT22;38930;52.766;6.884;2023-09-12T11:59:41;24.20;99.90
53045;DHT22;38930;52.766;6.884;2023-09-12T12:02:11;24.20;99.90
53045;DHT22;38930;52.766;6.884;2023-09-12T12:04:37;24.30;99.90
53045;DHT22;38930;52.766;6.884;2023-09-12T12:07:03;24.30;99.90
53045;DHT22;38930;52.766;6.884;2023-09-12T12:09:33;24.40;99.90
53045;DHT22;38930;52.766;6.884;2023-09-12T12:12:11;24.50;99.90
53045;DHT22;38930;52.766;6.884;2023-09-12T12:14:36;24.60;99.90
53045;DHT22;38930;52.766;6.884;2023-09-12T12:17:06;24.50;99.90
53045;DHT22;38930;52.766;6.884;2023-09-12T12:19:34;24.60;99.90
53045;DHT22;38930;52.766;6.884;2023-09-12T12:22:00;24.60;99.90
53045;DHT22;38930;52.766;6.884;2023-09-12T12:24:26;24.60;99.90
53045;DHT22;38930;52.766;6.884;2023-09-12T12:27:03;24.70;99.90
53045;DHT22;38930;52.766;6.884;2023-09-12T12:29:30;24.80;99.90
53045;DHT22;38930;52.766;6.884;2023-09-12T12:32:00;24.90;99.90
53045;DHT22;38930;52.766;6.884;2023-09-12T12:34:27;25.00;99.90
53045;DHT22;38930;52.766;6.884;2023-09-12T12:36:54;25.00;99.90
53045;DHT22;38930;52.766;6.884;2023-09-12T12:39:21;25.10;99.90
53045;DHT22;38930;52.766;6.884;2023-09-12T12:41:46;25.10;99.90
53045;DHT22;38930;52.766;6.884;2023-09-12T12:44:13;25.10;99.90
53045;DHT22;38930;52.766;6.884;2023-09-12T12:46:52;25.20;99.90
53045;DHT22;38930;52.766;6.884;2023-09-12T12:49:18;25.20;99.90
53045;DHT22;38930;52.766;6.884;2023-09-12T12:51:45;25.30;99.90
53045;DHT22;38930;52.766;6.884;2023-09-12T12:54:12;25.30;99.90
53045;DHT22;38930;52.766;6.884;2023-09-12T12:56:38;25.30;99.90
53045;DHT22;38930;52.766;6.884;2023-09-12T12:59:05;25.30;99.90
53045;DHT22;38930;52.766;6.884;2023-09-12T13:01:35;25.30;99.90
53045;DHT22;38930;52.766;6.884;2023-09-12T13:04:00;25.40;99.90
53045;DHT22;38930;52.766;6.884;2023-09-12T13:06:26;25.50;99.90
53045;DHT22;38930;52.766;6.884;2023-09-12T13:08:55;25.60;99.90
53045;DHT22;38930;52.766;6.884;2023-09-12T13:11:26;25.70;99.90
53045;DHT22;38930;52.766;6.884;2023-09-12T13:13:52;25.70;99.90
53045;DHT22;38930;52.766;6.884;2023-09-12T13:16:18;25.70;99.90
53045;DHT22;38930;52.766;6.884;2023-09-12T13:18:44;25.60;99.90
53045;DHT22;38930;52.766;6.884;2023-09-12T13:21:09;25.70;99.90
53045;DHT22;38930;52.766;6.884;2023-09-12T13:23:37;25.70;99.90
53045;DHT22;38930;52.766;6.884;2023-09-12T13:26:03;25.70;99.90
53045;DHT22;38930;52.766;6.884;2023-09-12T13:28:29;25.60;99.90
53045;DHT22;38930;52.766;6.884;2023-09-12T13:30:55;25.60;99.90
53045;DHT22;38930;52.766;6.884;2023-09-12T13:33:21;25.50;99.90
53045;DHT22;38930;52.766;6.884;2023-09-12T13:35:48;25.40;99.90
53045;DHT22;38930;52.766;6.884;2023-09-12T13:38:14;25.40;99.90
53045;DHT22;38930;52.766;6.884;2023-09-12T13:40:43;25.30;99.90
53045;DHT22;38930;52.766;6.884;2023-09-12T13:43:09;25.30;99.90
53045;DHT22;38930;52.766;6.884;2023-09-12T13:45:35;25.30;99.90
53045;DHT22;38930;52.766;6.884;2023-09-12T13:48:01;25.20;99.90
53045;DHT22;38930;52.766;6.884;2023-09-12T13:50:27;25.30;99.90
53045;DHT22;38930;52.766;6.884;2023-09-12T13:53:01;25.40;99.90
53045;DHT22;38930;52.766;6.884;2023-09-12T13:55:36;25.40;99.90
53045;DHT22;38930;52.766;6.884;2023-09-12T13:58:03;25.40;99.90
53045;DHT22;38930;52.766;6.884;2023-09-12T14:00:30;25.30;99.90
53045;DHT22;38930;52.766;6.884;2023-09-12T14:02:55;25.30;99.90
53045;DHT22;38930;52.766;6.884;2023-09-12T14:05:21;25.30;99.90
53045;DHT22;38930;52.766;6.884;2023-09-12T14:07:47;25.30;99.90
53045;DHT22;38930;52.766;6.884;2023-09-12T14:10:13;25.40;99.90
53045;DHT22;38930;52.766;6.884;2023-09-12T14:12:39;25.40;99.90
53045;DHT22;38930;52.766;6.884;2023-09-12T14:15:05;25.40;99.90
53045;DHT22;38930;52.766;6.884;2023-09-12T14:17:32;25.50;99.90
53045;DHT22;38930;52.766;6.884;2023-09-12T14:19:57;25.40;99.90
53045;DHT22;38930;52.766;6.884;2023-09-12T14:22:23;25.30;99.90
53045;DHT22;38930;52.766;6.884;2023-09-12T14:24:49;25.30;99.90
53045;DHT22;38930;52.766;6.884;2023-09-12T14:27:14;25.20;99.90
53045;DHT22;38930;52.766;6.884;2023-09-12T14:29:40;25.20;99.90
53045;DHT22;38930;52.766;6.884;2023-09-12T14:32:06;25.10;99.90
53045;DHT22;38930;52.766;6.884;2023-09-12T14:34:31;25.00;99.90
53045;DHT22;38930;52.766;6.884;2023-09-12T14:36:58;24.90;99.90
53045;DHT22;38930;52.766;6.884;2023-09-12T14:39:25;24.90;99.90
53045;DHT22;38930;52.766;6.884;2023-09-12T14:41:51;24.80;99.90
53045;DHT22;38930;52.766;6.884;2023-09-12T14:44:21;24.70;99.90
53045;DHT22;38930;52.766;6.884;2023-09-12T14:46:47;24.50;99.90
53045;DHT22;38930;52.766;6.884;2023-09-12T14:49:13;24.40;99.90
53045;DHT22;38930;52.766;6.884;2023-09-12T14:51:39;24.40;99.90
53045;DHT22;38930;52.766;6.884;2023-09-12T14:54:05;24.40;99.90
53045;DHT22;38930;52.766;6.884;2023-09-12T14:56:32;24.40;99.90
53045;DHT22;38930;52.766;6.884;2023-09-12T14:58:58;24.50;99.90
53045;DHT22;38930;52.766;6.884;2023-09-12T15:01:23;24.60;99.90
53045;DHT22;38930;52.766;6.884;2023-09-12T15:03:50;24.80;99.90
53045;DHT22;38930;52.766;6.884;2023-09-12T15:06:17;25.00;99.90
53045;DHT22;38930;52.766;6.884;2023-09-12T15:08:42;25.10;99.90
53045;DHT22;38930;52.766;6.884;2023-09-12T15:11:08;25.20;99.90
53045;DHT22;38930;52.766;6.884;2023-09-12T15:13:34;25.30;99.90
53045;DHT22;38930;52.766;6.884;2023-09-12T15:16:00;25.30;99.90
53045;DHT22;38930;52.766;6.884;2023-09-12T15:18:26;25.40;99.90
53045;DHT22;38930;52.766;6.884;2023-09-12T15:20:52;25.40;99.90
53045;DHT22;38930;52.766;6.884;2023-09-12T15:23:19;25.40;99.90
53045;DHT22;38930;52.766;6.884;2023-09-12T15:25:46;25.40;99.90
53045;DHT22;38930;52.766;6.884;2023-09-12T15:28:12;25.40;99.90
53045;DHT22;38930;52.766;6.884;2023-09-12T15:30:38;25.20;99.90
53045;DHT22;38930;52.766;6.884;2023-09-12T15:33:03;25.10;99.90
53045;DHT22;38930;52.766;6.884;2023-09-12T15:35:29;24.90;99.90
53045;DHT22;38930;52.766;6.884;2023-09-12T15:37:55;24.80;99.90
53045;DHT22;38930;52.766;6.884;2023-09-12T15:40:20;24.70;99.90